KINW

Winslow-Lindbergh Regional Airport

Winslow, Arizona, USA
METAR KINW 191456Z AUTO 31003KT 10SM CLR 24/11 A3020 RMK AO2 SLP145 T02440111 51014
Observed Flight Rules
Aug-19 @ 14:56 UTC (42 minutes ago) Visual Flight Rules
Wind Visibility Clouds
310° at 3 knots 10 miles
  • Clear skies
Temperatures Readings
Current 24°C / 75°F
Dewpoint 11°C / 52°F
Humidity 44%
Altimeter 30.2" Hg
Pressure 1014.5 hPa
Elevation 1490
METAR KINW 191456Z AUTO 31003KT 10SM CLR 24/11 A3020 RMK AO2 SLP145 T02440111 51014
Observed Flight Rules
Aug-19 @ 14:56 UTC
(42 minutes ago)
VFR
Wind Visibility
310° at 3 knots 10 miles
Clouds
  • Clear skies
Temperature Dewpoint
24°C / 75°F 11°C / 52°F
Humidity Altimeter Pressure
44% 30.2" Hg 1014.5 hPa